sensor_id;sensor_type;location;lat;lon;timestamp;temperature;humidity
5932;DHT22;2991;49.368;8.528;2022-09-01T00:01:04;26.20;89.10
5932;DHT22;2991;49.368;8.528;2022-09-01T00:03:32;26.20;89.10
5932;DHT22;2991;49.368;8.528;2022-09-01T00:05:59;26.20;89.00
5932;DHT22;2991;49.368;8.528;2022-09-01T00:08:25;26.20;89.00
5932;DHT22;2991;49.368;8.528;2022-09-01T00:10:50;26.20;89.10
5932;DHT22;2991;49.368;8.528;2022-09-01T00:13:16;26.20;89.10
5932;DHT22;2991;49.368;8.528;2022-09-01T00:15:42;26.20;89.00
5932;DHT22;2991;49.368;8.528;2022-09-01T00:18:08;26.20;89.00
5932;DHT22;2991;49.368;8.528;2022-09-01T00:20:33;26.20;89.20
5932;DHT22;2991;49.368;8.528;2022-09-01T00:22:59;26.20;89.10
5932;DHT22;2991;49.368;8.528;2022-09-01T00:25:26;26.20;89.00
5932;DHT22;2991;49.368;8.528;2022-09-01T00:27:52;26.20;88.90
5932;DHT22;2991;49.368;8.528;2022-09-01T00:30:19;26.20;89.00
5932;DHT22;2991;49.368;8.528;2022-09-01T00:32:45;26.10;88.90
5932;DHT22;2991;49.368;8.528;2022-09-01T00:35:16;26.20;88.90
5932;DHT22;2991;49.368;8.528;2022-09-01T00:37:42;26.20;88.90
5932;DHT22;2991;49.368;8.528;2022-09-01T00:40:09;26.10;88.90
5932;DHT22;2991;49.368;8.528;2022-09-01T00:42:36;26.10;88.90
5932;DHT22;2991;49.368;8.528;2022-09-01T00:45:03;26.10;88.90
5932;DHT22;2991;49.368;8.528;2022-09-01T00:47:29;26.10;88.90
5932;DHT22;2991;49.368;8.528;2022-09-01T00:49:54;26.10;88.90
5932;DHT22;2991;49.368;8.528;2022-09-01T00:52:28;26.20;89.00
5932;DHT22;2991;49.368;8.528;2022-09-01T00:54:57;26.10;88.90
5932;DHT22;2991;49.368;8.528;2022-09-01T00:57:24;26.10;88.90
5932;DHT22;2991;49.368;8.528;2022-09-01T01:00:03;26.10;88.90
5932;DHT22;2991;49.368;8.528;2022-09-01T01:02:29;26.00;88.90
5932;DHT22;2991;49.368;8.528;2022-09-01T01:04:55;26.10;89.00
5932;DHT22;2991;49.368;8.528;2022-09-01T01:07:23;26.00;89.00
5932;DHT22;2991;49.368;8.528;2022-09-01T01:09:51;26.00;88.90
5932;DHT22;2991;49.368;8.528;2022-09-01T01:12:17;26.00;88.90
5932;DHT22;2991;49.368;8.528;2022-09-01T01:14:47;26.10;88.90
5932;DHT22;2991;49.368;8.528;2022-09-01T01:17:17;26.00;88.80
5932;DHT22;2991;49.368;8.528;2022-09-01T01:19:50;26.00;89.00
5932;DHT22;2991;49.368;8.528;2022-09-01T01:28:09;26.00;89.00
5932;DHT22;2991;49.368;8.528;2022-09-01T01:30:37;26.00;89.00
5932;DHT22;2991;49.368;8.528;2022-09-01T01:33:05;25.90;89.00
5932;DHT22;2991;49.368;8.528;2022-09-01T01:35:31;26.00;89.00
5932;DHT22;2991;49.368;8.528;2022-09-01T01:37:58;25.90;89.00
5932;DHT22;2991;49.368;8.528;2022-09-01T01:40:27;25.90;89.10
5932;DHT22;2991;49.368;8.528;2022-09-01T01:42:54;25.90;89.10
5932;DHT22;2991;49.368;8.528;2022-09-01T01:45:23;25.90;89.10
5932;DHT22;2991;49.368;8.528;2022-09-01T01:47:50;25.90;89.20
5932;DHT22;2991;49.368;8.528;2022-09-01T01:50:27;25.90;89.10
5932;DHT22;2991;49.368;8.528;2022-09-01T01:52:55;25.90;89.20
5932;DHT22;2991;49.368;8.528;2022-09-01T01:55:24;25.90;89.10
5932;DHT22;2991;49.368;8.528;2022-09-01T01:57:53;25.90;89.10
5932;DHT22;2991;49.368;8.528;2022-09-01T02:00:23;25.90;89.10
5932;DHT22;2991;49.368;8.528;2022-09-01T02:02:50;25.90;89.20
5932;DHT22;2991;49.368;8.528;2022-09-01T02:05:21;25.90;89.20
5932;DHT22;2991;49.368;8.528;2022-09-01T02:08:00;25.90;89.20
5932;DHT22;2991;49.368;8.528;2022-09-01T02:10:32;25.90;89.20
5932;DHT22;2991;49.368;8.528;2022-09-01T02:12:59;25.90;89.10
5932;DHT22;2991;49.368;8.528;2022-09-01T02:15:31;25.90;89.10
5932;DHT22;2991;49.368;8.528;2022-09-01T02:18:00;25.90;89.30
5932;DHT22;2991;49.368;8.528;2022-09-01T02:20:26;25.90;89.20
5932;DHT22;2991;49.368;8.528;2022-09-01T02:22:57;25.80;89.10
5932;DHT22;2991;49.368;8.528;2022-09-01T02:25:23;25.80;89.10
5932;DHT22;2991;49.368;8.528;2022-09-01T02:27:48;25.80;89.20
5932;DHT22;2991;49.368;8.528;2022-09-01T02:30:18;25.80;89.10
5932;DHT22;2991;49.368;8.528;2022-09-01T02:32:43;25.80;89.20
5932;DHT22;2991;49.368;8.528;2022-09-01T02:35:09;25.80;89.20
5932;DHT22;2991;49.368;8.528;2022-09-01T02:37:37;25.80;89.20
5932;DHT22;2991;49.368;8.528;2022-09-01T02:40:05;25.80;89.30
5932;DHT22;2991;49.368;8.528;2022-09-01T02:42:31;25.80;89.20
5932;DHT22;2991;49.368;8.528;2022-09-01T02:44:57;25.80;89.30
5932;DHT22;2991;49.368;8.528;2022-09-01T02:47:23;25.80;89.30
5932;DHT22;2991;49.368;8.528;2022-09-01T02:49:52;25.80;89.30
5932;DHT22;2991;49.368;8.528;2022-09-01T02:52:18;25.80;89.30
5932;DHT22;2991;49.368;8.528;2022-09-01T02:54:47;25.80;89.30
5932;DHT22;2991;49.368;8.528;2022-09-01T02:57:14;25.70;89.20
5932;DHT22;2991;49.368;8.528;2022-09-01T02:59:40;25.70;89.30
5932;DHT22;2991;49.368;8.528;2022-09-01T03:02:08;25.70;89.30
5932;DHT22;2991;49.368;8.528;2022-09-01T03:04:35;25.70;89.30
5932;DHT22;2991;49.368;8.528;2022-09-01T03:07:02;25.70;89.30
5932;DHT22;2991;49.368;8.528;2022-09-01T03:09:28;25.70;89.30
5932;DHT22;2991;49.368;8.528;2022-09-01T03:11:54;25.70;89.30
5932;DHT22;2991;49.368;8.528;2022-09-01T03:14:21;25.70;89.30
5932;DHT22;2991;49.368;8.528;2022-09-01T03:16:46;25.70;89.40
5932;DHT22;2991;49.368;8.528;2022-09-01T03:19:12;25.70;89.30
5932;DHT22;2991;49.368;8.528;2022-09-01T03:21:40;25.60;89.30
5932;DHT22;2991;49.368;8.528;2022-09-01T03:24:08;25.70;89.40
5932;DHT22;2991;49.368;8.528;2022-09-01T03:26:35;25.60;89.30
5932;DHT22;2991;49.368;8.528;2022-09-01T03:29:01;25.60;89.40
5932;DHT22;2991;49.368;8.528;2022-09-01T03:31:28;25.60;89.40
5932;DHT22;2991;49.368;8.528;2022-09-01T03:33:54;25.60;89.40
5932;DHT22;2991;49.368;8.528;2022-09-01T03:36:22;25.60;89.40
5932;DHT22;2991;49.368;8.528;2022-09-01T03:38:49;25.60;89.50
5932;DHT22;2991;49.368;8.528;2022-09-01T03:41:18;25.60;89.40
5932;DHT22;2991;49.368;8.528;2022-09-01T03:43:44;25.60;89.50
5932;DHT22;2991;49.368;8.528;2022-09-01T03:46:11;25.60;89.50
5932;DHT22;2991;49.368;8.528;2022-09-01T03:48:40;25.60;89.40
5932;DHT22;2991;49.368;8.528;2022-09-01T03:51:07;25.60;89.60
5932;DHT22;2991;49.368;8.528;2022-09-01T03:53:35;25.60;89.70
5932;DHT22;2991;49.368;8.528;2022-09-01T03:56:02;25.60;89.60
5932;DHT22;2991;49.368;8.528;2022-09-01T03:58:28;25.60;89.60
5932;DHT22;2991;49.368;8.528;2022-09-01T04:00:56;25.50;89.50
5932;DHT22;2991;49.368;8.528;2022-09-01T04:03:27;25.60;89.60
5932;DHT22;2991;49.368;8.528;2022-09-01T04:05:53;25.60;89.70
5932;DHT22;2991;49.368;8.528;2022-09-01T04:08:21;25.50;89.60
5932;DHT22;2991;49.368;8.528;2022-09-01T04:10:58;25.50;89.50
5932;DHT22;2991;49.368;8.528;2022-09-01T04:13:27;25.50;89.70
5932;DHT22;2991;49.368;8.528;2022-09-01T04:15:55;25.50;89.60
5932;DHT22;2991;49.368;8.528;2022-09-01T04:18:21;25.50;90.10
5932;DHT22;2991;49.368;8.528;2022-09-01T04:20:56;25.50;89.60
5932;DHT22;2991;49.368;8.528;2022-09-01T04:23:33;25.50;89.70
5932;DHT22;2991;49.368;8.528;2022-09-01T04:28:43;25.40;89.70
5932;DHT22;2991;49.368;8.528;2022-09-01T04:31:18;25.50;89.60
5932;DHT22;2991;49.368;8.528;2022-09-01T04:33:46;25.50;89.70
5932;DHT22;2991;49.368;8.528;2022-09-01T04:36:21;25.40;89.70
5932;DHT22;2991;49.368;8.528;2022-09-01T04:38:50;25.40;89.60
5932;DHT22;2991;49.368;8.528;2022-09-01T04:41:19;25.40;89.80
5932;DHT22;2991;49.368;8.528;2022-09-01T04:43:46;25.40;89.80
5932;DHT22;2991;49.368;8.528;2022-09-01T04:46:16;25.40;89.80
5932;DHT22;2991;49.368;8.528;2022-09-01T04:48:43;25.40;89.80
5932;DHT22;2991;49.368;8.528;2022-09-01T04:51:13;25.40;89.80
5932;DHT22;2991;49.368;8.528;2022-09-01T04:53:40;25.40;89.90
5932;DHT22;2991;49.368;8.528;2022-09-01T04:56:08;25.40;90.20
5932;DHT22;2991;49.368;8.528;2022-09-01T04:58:34;25.40;89.80
5932;DHT22;2991;49.368;8.528;2022-09-01T05:01:01;25.40;89.70
5932;DHT22;2991;49.368;8.528;2022-09-01T05:03:30;25.40;89.90
5932;DHT22;2991;49.368;8.528;2022-09-01T05:05:56;25.40;89.80
5932;DHT22;2991;49.368;8.528;2022-09-01T05:08:27;25.40;90.00
5932;DHT22;2991;49.368;8.528;2022-09-01T05:10:54;25.40;90.00
5932;DHT22;2991;49.368;8.528;2022-09-01T05:13:21;25.30;89.80
5932;DHT22;2991;49.368;8.528;2022-09-01T05:16:00;25.40;89.80
5932;DHT22;2991;49.368;8.528;2022-09-01T05:18:26;25.30;89.80
5932;DHT22;2991;49.368;8.528;2022-09-01T05:20:53;25.40;90.00
5932;DHT22;2991;49.368;8.528;2022-09-01T05:23:19;25.40;89.80
5932;DHT22;2991;49.368;8.528;2022-09-01T05:25:48;25.30;89.80
5932;DHT22;2991;49.368;8.528;2022-09-01T05:28:16;25.40;90.20
5932;DHT22;2991;49.368;8.528;2022-09-01T05:30:45;25.30;89.80
5932;DHT22;2991;49.368;8.528;2022-09-01T05:33:12;25.40;90.00
5932;DHT22;2991;49.368;8.528;2022-09-01T05:35:46;25.30;89.80
5932;DHT22;2991;49.368;8.528;2022-09-01T05:38:17;25.30;89.80
5932;DHT22;2991;49.368;8.528;2022-09-01T05:40:43;25.30;89.80
5932;DHT22;2991;49.368;8.528;2022-09-01T05:43:11;25.30;89.90
5932;DHT22;2991;49.368;8.528;2022-09-01T05:45:40;25.30;89.80
5932;DHT22;2991;49.368;8.528;2022-09-01T05:48:10;25.20;89.70
5932;DHT22;2991;49.368;8.528;2022-09-01T05:50:38;25.30;90.00
5932;DHT22;2991;49.368;8.528;2022-09-01T05:53:10;25.30;89.80
5932;DHT22;2991;49.368;8.528;2022-09-01T05:55:41;25.30;89.80
5932;DHT22;2991;49.368;8.528;2022-09-01T05:58:09;25.20;89.80
5932;DHT22;2991;49.368;8.528;2022-09-01T06:00:39;25.30;90.00
5932;DHT22;2991;49.368;8.528;2022-09-01T06:03:04;25.30;89.90
5932;DHT22;2991;49.368;8.528;2022-09-01T06:05:33;25.30;89.80
5932;DHT22;2991;49.368;8.528;2022-09-01T06:08:01;25.30;89.90
5932;DHT22;2991;49.368;8.528;2022-09-01T06:10:27;25.30;90.00
5932;DHT22;2991;49.368;8.528;2022-09-01T06:12:54;25.30;90.00
5932;DHT22;2991;49.368;8.528;2022-09-01T06:15:21;25.20;90.00
5932;DHT22;2991;49.368;8.528;2022-09-01T06:17:47;25.30;90.00
5932;DHT22;2991;49.368;8.528;2022-09-01T06:20:13;25.30;90.00
5932;DHT22;2991;49.368;8.528;2022-09-01T06:22:43;25.30;90.00
5932;DHT22;2991;49.368;8.528;2022-09-01T06:25:09;25.30;89.90
5932;DHT22;2991;49.368;8.528;2022-09-01T06:27:35;25.30;90.00
5932;DHT22;2991;49.368;8.528;2022-09-01T06:30:06;25.30;90.00
5932;DHT22;2991;49.368;8.528;2022-09-01T06:32:40;25.20;90.00
5932;DHT22;2991;49.368;8.528;2022-09-01T06:35:09;25.20;90.00
5932;DHT22;2991;49.368;8.528;2022-09-01T06:37:39;25.20;89.90
5932;DHT22;2991;49.368;8.528;2022-09-01T06:40:07;25.20;90.00
5932;DHT22;2991;49.368;8.528;2022-09-01T06:42:42;25.30;90.00
5932;DHT22;2991;49.368;8.528;2022-09-01T06:45:08;25.30;90.00
5932;DHT22;2991;49.368;8.528;2022-09-01T06:47:35;25.30;90.00
5932;DHT22;2991;49.368;8.528;2022-09-01T06:50:01;25.40;90.00
5932;DHT22;2991;49.368;8.528;2022-09-01T06:52:27;25.40;89.90
5932;DHT22;2991;49.368;8.528;2022-09-01T06:54:53;25.40;89.90
5932;DHT22;2991;49.368;8.528;2022-09-01T06:57:19;25.40;89.80
5932;DHT22;2991;49.368;8.528;2022-09-01T06:59:45;25.40;89.70
5932;DHT22;2991;49.368;8.528;2022-09-01T07:02:12;25.50;89.70
5932;DHT22;2991;49.368;8.528;2022-09-01T07:04:41;25.50;89.80
5932;DHT22;2991;49.368;8.528;2022-09-01T07:07:11;25.40;89.80
5932;DHT22;2991;49.368;8.528;2022-09-01T07:09:38;25.40;89.80
5932;DHT22;2991;49.368;8.528;2022-09-01T07:12:05;25.40;90.00
5932;DHT22;2991;49.368;8.528;2022-09-01T07:14:31;25.40;89.90
5932;DHT22;2991;49.368;8.528;2022-09-01T07:16:57;25.30;90.00
5932;DHT22;2991;49.368;8.528;2022-09-01T07:19:23;25.40;90.00
5932;DHT22;2991;49.368;8.528;2022-09-01T07:21:51;25.40;90.00
5932;DHT22;2991;49.368;8.528;2022-09-01T07:24:18;25.30;89.90
5932;DHT22;2991;49.368;8.528;2022-09-01T07:26:45;25.30;89.90
5932;DHT22;2991;49.368;8.528;2022-09-01T07:29:14;25.30;89.90
5932;DHT22;2991;49.368;8.528;2022-09-01T07:31:42;25.40;90.00
5932;DHT22;2991;49.368;8.528;2022-09-01T07:34:11;25.40;90.00
5932;DHT22;2991;49.368;8.528;2022-09-01T07:36:41;25.40;90.00
5932;DHT22;2991;49.368;8.528;2022-09-01T07:39:08;25.40;90.00
5932;DHT22;2991;49.368;8.528;2022-09-01T07:41:34;25.40;90.00
5932;DHT22;2991;49.368;8.528;2022-09-01T07:44:01;25.40;89.90
5932;DHT22;2991;49.368;8.528;2022-09-01T07:46:30;25.40;90.00
5932;DHT22;2991;49.368;8.528;2022-09-01T07:48:58;25.40;90.00
5932;DHT22;2991;49.368;8.528;2022-09-01T07:51:24;25.50;90.10
5932;DHT22;2991;49.368;8.528;2022-09-01T07:53:51;25.40;90.20
5932;DHT22;2991;49.368;8.528;2022-09-01T07:56:21;25.40;90.30
5932;DHT22;2991;49.368;8.528;2022-09-01T07:58:49;25.30;90.40
5932;DHT22;2991;49.368;8.528;2022-09-01T08:01:18;25.30;90.40
5932;DHT22;2991;49.368;8.528;2022-09-01T08:03:46;25.30;90.40
5932;DHT22;2991;49.368;8.528;2022-09-01T08:06:13;25.30;90.30
5932;DHT22;2991;49.368;8.528;2022-09-01T08:08:40;25.30;90.20
5932;DHT22;2991;49.368;8.528;2022-09-01T08:11:06;25.30;90.10
5932;DHT22;2991;49.368;8.528;2022-09-01T08:13:34;25.40;90.10
5932;DHT22;2991;49.368;8.528;2022-09-01T08:16:03;25.40;90.10
5932;DHT22;2991;49.368;8.528;2022-09-01T08:18:29;25.40;90.00
5932;DHT22;2991;49.368;8.528;2022-09-01T08:20:54;25.40;90.10
5932;DHT22;2991;49.368;8.528;2022-09-01T08:23:20;25.40;90.10
5932;DHT22;2991;49.368;8.528;2022-09-01T08:25:50;25.50;90.10
5932;DHT22;2991;49.368;8.528;2022-09-01T08:28:16;25.50;90.20
5932;DHT22;2991;49.368;8.528;2022-09-01T08:30:43;25.40;90.30
5932;DHT22;2991;49.368;8.528;2022-09-01T08:33:09;25.40;90.40
5932;DHT22;2991;49.368;8.528;2022-09-01T08:35:47;25.50;90.40
5932;DHT22;2991;49.368;8.528;2022-09-01T08:38:14;25.40;90.40
5932;DHT22;2991;49.368;8.528;2022-09-01T08:40:40;25.60;90.40
5932;DHT22;2991;49.368;8.528;2022-09-01T08:43:15;25.60;90.30
5932;DHT22;2991;49.368;8.528;2022-09-01T08:46:13;25.70;90.30
5932;DHT22;2991;49.368;8.528;2022-09-01T08:49:34;25.70;90.30
5932;DHT22;2991;49.368;8.528;2022-09-01T08:51:59;25.80;90.20
5932;DHT22;2991;49.368;8.528;2022-09-01T08:57:08;25.90;90.10
5932;DHT22;2991;49.368;8.528;2022-09-01T08:59:35;25.90;90.00
5932;DHT22;2991;49.368;8.528;2022-09-01T09:13:16;25.60;90.20
5932;DHT22;2991;49.368;8.528;2022-09-01T09:15:50;25.70;90.60
5932;DHT22;2991;49.368;8.528;2022-09-01T09:18:33;25.90;90.30
5932;DHT22;2991;49.368;8.528;2022-09-01T09:21:29;26.00;90.20
5932;DHT22;2991;49.368;8.528;2022-09-01T09:24:27;26.00;90.10
5932;DHT22;2991;49.368;8.528;2022-09-01T09:28:05;26.10;90.00
5932;DHT22;2991;49.368;8.528;2022-09-01T09:34:44;26.30;89.70
5932;DHT22;2991;49.368;8.528;2022-09-01T09:37:54;26.30;89.40
5932;DHT22;2991;49.368;8.528;2022-09-01T09:54:40;26.40;89.00
5932;DHT22;2991;49.368;8.528;2022-09-01T09:57:55;26.40;89.10
5932;DHT22;2991;49.368;8.528;2022-09-01T10:01:10;26.50;89.10
5932;DHT22;2991;49.368;8.528;2022-09-01T10:03:59;26.50;88.90
5932;DHT22;2991;49.368;8.528;2022-09-01T10:10:50;26.50;88.60
5932;DHT22;2991;49.368;8.528;2022-09-01T11:08:46;26.60;88.10
5932;DHT22;2991;49.368;8.528;2022-09-01T11:11:47;26.60;88.10
5932;DHT22;2991;49.368;8.528;2022-09-01T11:14:19;26.60;88.10
5932;DHT22;2991;49.368;8.528;2022-09-01T11:17:12;26.60;88.00
5932;DHT22;2991;49.368;8.528;2022-09-01T11:22:31;26.60;87.90
5932;DHT22;2991;49.368;8.528;2022-09-01T11:30:34;26.70;87.70
5932;DHT22;2991;49.368;8.528;2022-09-01T11:33:12;26.70;87.60
5932;DHT22;2991;49.368;8.528;2022-09-01T11:35:45;26.70;87.60
5932;DHT22;2991;49.368;8.528;2022-09-01T11:38:14;26.80;87.60
5932;DHT22;2991;49.368;8.528;2022-09-01T11:40:41;26.80;87.60
5932;DHT22;2991;49.368;8.528;2022-09-01T11:43:12;26.80;87.60
5932;DHT22;2991;49.368;8.528;2022-09-01T11:48:22;26.80;87.40
5932;DHT22;2991;49.368;8.528;2022-09-01T11:50:57;26.80;87.40
5932;DHT22;2991;49.368;8.528;2022-09-01T11:53:25;26.80;87.60
5932;DHT22;2991;49.368;8.528;2022-09-01T11:55:52;26.80;87.60
5932;DHT22;2991;49.368;8.528;2022-09-01T11:58:31;26.80;87.50
5932;DHT22;2991;49.368;8.528;2022-09-01T12:01:21;26.80;87.50
5932;DHT22;2991;49.368;8.528;2022-09-01T12:03:48;26.70;88.30
5932;DHT22;2991;49.368;8.528;2022-09-01T12:06:22;26.70;87.60
5932;DHT22;2991;49.368;8.528;2022-09-01T12:09:04;26.80;87.60
5932;DHT22;2991;49.368;8.528;2022-09-01T12:11:32;26.80;87.60
5932;DHT22;2991;49.368;8.528;2022-09-01T12:14:19;26.80;87.60
5932;DHT22;2991;49.368;8.528;2022-09-01T12:16:59;26.80;87.40
5932;DHT22;2991;49.368;8.528;2022-09-01T12:19:31;26.90;87.50
5932;DHT22;2991;49.368;8.528;2022-09-01T12:22:13;26.90;88.10
5932;DHT22;2991;49.368;8.528;2022-09-01T12:24:47;26.80;87.40
5932;DHT22;2991;49.368;8.528;2022-09-01T12:27:13;26.80;87.40
5932;DHT22;2991;49.368;8.528;2022-09-01T12:29:39;26.80;87.50
5932;DHT22;2991;49.368;8.528;2022-09-01T12:32:05;26.70;87.50
5932;DHT22;2991;49.368;8.528;2022-09-01T12:34:41;26.70;87.50
5932;DHT22;2991;49.368;8.528;2022-09-01T12:39:40;26.70;87.60
5932;DHT22;2991;49.368;8.528;2022-09-01T12:45:04;26.70;87.60
5932;DHT22;2991;49.368;8.528;2022-09-01T12:52:45;26.70;87.60
5932;DHT22;2991;49.368;8.528;2022-09-01T12:55:19;26.70;87.70
5932;DHT22;2991;49.368;8.528;2022-09-01T12:57:52;26.70;87.60
5932;DHT22;2991;49.368;8.528;2022-09-01T13:00:24;26.70;87.60
5932;DHT22;2991;49.368;8.528;2022-09-01T13:05:38;26.60;87.50
5932;DHT22;2991;49.368;8.528;2022-09-01T13:08:10;26.60;87.60
5932;DHT22;2991;49.368;8.528;2022-09-01T13:10:41;26.60;87.60
5932;DHT22;2991;49.368;8.528;2022-09-01T13:13:09;26.60;87.70
5932;DHT22;2991;49.368;8.528;2022-09-01T13:15:39;26.60;87.60
5932;DHT22;2991;49.368;8.528;2022-09-01T13:18:05;26.60;87.60
5932;DHT22;2991;49.368;8.528;2022-09-01T13:20:31;26.60;87.60
5932;DHT22;2991;49.368;8.528;2022-09-01T13:22:56;26.60;87.60
5932;DHT22;2991;49.368;8.528;2022-09-01T13:25:23;26.60;87.40
5932;DHT22;2991;49.368;8.528;2022-09-01T13:27:50;26.60;87.40
5932;DHT22;2991;49.368;8.528;2022-09-01T13:30:24;26.60;87.40
5932;DHT22;2991;49.368;8.528;2022-09-01T13:32:52;26.60;87.40
5932;DHT22;2991;49.368;8.528;2022-09-01T13:35:20;26.60;87.40
5932;DHT22;2991;49.368;8.528;2022-09-01T13:37:46;26.70;87.50
5932;DHT22;2991;49.368;8.528;2022-09-01T13:40:12;26.70;87.40
5932;DHT22;2991;49.368;8.528;2022-09-01T13:42:46;26.70;87.40
5932;DHT22;2991;49.368;8.528;2022-09-01T13:45:13;26.70;87.40
5932;DHT22;2991;49.368;8.528;2022-09-01T13:47:47;26.70;87.40
5932;DHT22;2991;49.368;8.528;2022-09-01T13:50:15;26.70;87.30
5932;DHT22;2991;49.368;8.528;2022-09-01T13:52:46;26.70;87.40
5932;DHT22;2991;49.368;8.528;2022-09-01T13:55:16;26.70;87.40
5932;DHT22;2991;49.368;8.528;2022-09-01T13:57:42;26.70;87.30
5932;DHT22;2991;49.368;8.528;2022-09-01T14:00:11;26.70;87.30
5932;DHT22;2991;49.368;8.528;2022-09-01T14:02:39;26.60;88.00
5932;DHT22;2991;49.368;8.528;2022-09-01T14:05:05;26.60;87.30
5932;DHT22;2991;49.368;8.528;2022-09-01T14:07:31;26.70;87.30
5932;DHT22;2991;49.368;8.528;2022-09-01T14:09:57;26.60;87.30
5932;DHT22;2991;49.368;8.528;2022-09-01T14:12:23;26.70;87.40
5932;DHT22;2991;49.368;8.528;2022-09-01T14:14:48;26.60;87.20
5932;DHT22;2991;49.368;8.528;2022-09-01T14:17:14;26.60;87.30
5932;DHT22;2991;49.368;8.528;2022-09-01T14:19:40;26.60;87.90
5932;DHT22;2991;49.368;8.528;2022-09-01T14:22:06;26.60;87.40
5932;DHT22;2991;49.368;8.528;2022-09-01T14:24:35;26.70;87.50
5932;DHT22;2991;49.368;8.528;2022-09-01T14:27:01;26.60;87.30
5932;DHT22;2991;49.368;8.528;2022-09-01T14:29:27;26.70;87.90
5932;DHT22;2991;49.368;8.528;2022-09-01T14:31:54;26.70;87.10
5932;DHT22;2991;49.368;8.528;2022-09-01T14:34:24;26.70;87.10
5932;DHT22;2991;49.368;8.528;2022-09-01T14:36:50;26.70;87.10
5932;DHT22;2991;49.368;8.528;2022-09-01T14:39:20;26.70;87.30
5932;DHT22;2991;49.368;8.528;2022-09-01T14:41:46;26.60;87.10
5932;DHT22;2991;49.368;8.528;2022-09-01T14:44:11;26.60;87.10
5932;DHT22;2991;49.368;8.528;2022-09-01T14:46:37;26.70;87.30
5932;DHT22;2991;49.368;8.528;2022-09-01T14:49:04;26.60;87.10
5932;DHT22;2991;49.368;8.528;2022-09-01T14:51:31;26.60;87.20
5932;DHT22;2991;49.368;8.528;2022-09-01T14:53:57;26.70;87.30
5932;DHT22;2991;49.368;8.528;2022-09-01T14:56:23;26.70;87.30
5932;DHT22;2991;49.368;8.528;2022-09-01T14:58:49;26.60;87.10
5932;DHT22;2991;49.368;8.528;2022-09-01T15:01:19;26.70;87.20
5932;DHT22;2991;49.368;8.528;2022-09-01T15:03:46;26.70;87.10
5932;DHT22;2991;49.368;8.528;2022-09-01T15:06:14;26.70;87.20
5932;DHT22;2991;49.368;8.528;2022-09-01T15:08:40;26.70;87.10
5932;DHT22;2991;49.368;8.528;2022-09-01T15:11:10;26.70;87.10
5932;DHT22;2991;49.368;8.528;2022-09-01T15:13:37;26.70;87.10
5932;DHT22;2991;49.368;8.528;2022-09-01T15:16:03;26.70;87.10
5932;DHT22;2991;49.368;8.528;2022-09-01T15:18:29;26.70;87.10
5932;DHT22;2991;49.368;8.528;2022-09-01T15:20:55;26.70;86.90
5932;DHT22;2991;49.368;8.528;2022-09-01T15:23:24;26.70;87.00
5932;DHT22;2991;49.368;8.528;2022-09-01T15:25:52;26.70;87.00
5932;DHT22;2991;49.368;8.528;2022-09-01T15:28:18;26.70;87.00
5932;DHT22;2991;49.368;8.528;2022-09-01T15:30:45;26.80;87.10
5932;DHT22;2991;49.368;8.528;2022-09-01T15:33:11;26.80;87.00
5932;DHT22;2991;49.368;8.528;2022-09-01T15:35:38;26.80;87.00
5932;DHT22;2991;49.368;8.528;2022-09-01T15:38:04;26.80;87.00
5932;DHT22;2991;49.368;8.528;2022-09-01T15:40:32;26.80;87.00
5932;DHT22;2991;49.368;8.528;2022-09-01T15:42:57;26.80;87.00
5932;DHT22;2991;49.368;8.528;2022-09-01T15:45:26;26.80;87.00
5932;DHT22;2991;49.368;8.528;2022-09-01T15:47:52;26.80;87.00
5932;DHT22;2991;49.368;8.528;2022-09-01T15:50:20;26.80;86.90
5932;DHT22;2991;49.368;8.528;2022-09-01T15:53:01;26.80;87.00
5932;DHT22;2991;49.368;8.528;2022-09-01T15:55:37;26.70;86.90
5932;DHT22;2991;49.368;8.528;2022-09-01T15:58:05;26.80;87.00
5932;DHT22;2991;49.368;8.528;2022-09-01T16:00:31;26.80;87.00
5932;DHT22;2991;49.368;8.528;2022-09-01T16:02:57;26.80;87.00
5932;DHT22;2991;49.368;8.528;2022-09-01T16:05:26;26.80;87.00
5932;DHT22;2991;49.368;8.528;2022-09-01T16:07:52;26.70;87.00
5932;DHT22;2991;49.368;8.528;2022-09-01T16:10:19;26.70;86.90
5932;DHT22;2991;49.368;8.528;2022-09-01T16:12:45;26.70;86.70
5932;DHT22;2991;49.368;8.528;2022-09-01T16:15:16;26.70;86.90
5932;DHT22;2991;49.368;8.528;2022-09-01T16:21:03;26.70;86.90
5932;DHT22;2991;49.368;8.528;2022-09-01T16:23:44;26.70;86.90
5932;DHT22;2991;49.368;8.528;2022-09-01T16:26:10;26.70;86.90
5932;DHT22;2991;49.368;8.528;2022-09-01T16:28:36;26.70;86.90
5932;DHT22;2991;49.368;8.528;2022-09-01T16:31:11;26.70;87.00
5932;DHT22;2991;49.368;8.528;2022-09-01T16:33:37;26.70;87.00
5932;DHT22;2991;49.368;8.528;2022-09-01T16:42:05;26.60;86.90
5932;DHT22;2991;49.368;8.528;2022-09-01T16:44:44;26.60;87.10
5932;DHT22;2991;49.368;8.528;2022-09-01T16:53:01;26.60;87.10
5932;DHT22;2991;49.368;8.528;2022-09-01T16:55:41;26.60;87.10
5932;DHT22;2991;49.368;8.528;2022-09-01T16:58:19;26.60;87.10
5932;DHT22;2991;49.368;8.528;2022-09-01T17:00:54;26.60;87.10
5932;DHT22;2991;49.368;8.528;2022-09-01T17:03:29;26.60;87.10
5932;DHT22;2991;49.368;8.528;2022-09-01T17:06:16;26.60;87.10
5932;DHT22;2991;49.368;8.528;2022-09-01T17:08:53;26.60;87.10
5932;DHT22;2991;49.368;8.528;2022-09-01T17:11:30;26.60;87.20
5932;DHT22;2991;49.368;8.528;2022-09-01T17:13:58;26.60;87.10
5932;DHT22;2991;49.368;8.528;2022-09-01T17:16:39;26.60;87.10
5932;DHT22;2991;49.368;8.528;2022-09-01T17:19:08;26.60;87.20
5932;DHT22;2991;49.368;8.528;2022-09-01T17:24:30;26.60;87.10
5932;DHT22;2991;49.368;8.528;2022-09-01T17:27:01;26.60;87.20
5932;DHT22;2991;49.368;8.528;2022-09-01T17:29:43;26.60;87.90
5932;DHT22;2991;49.368;8.528;2022-09-01T17:32:18;26.50;87.10
5932;DHT22;2991;49.368;8.528;2022-09-01T17:35:22;26.60;87.20
5932;DHT22;2991;49.368;8.528;2022-09-01T17:43:58;26.60;87.20
5932;DHT22;2991;49.368;8.528;2022-09-01T17:59:51;26.50;87.00
5932;DHT22;2991;49.368;8.528;2022-09-01T18:05:15;26.50;87.10
5932;DHT22;2991;49.368;8.528;2022-09-01T18:10:26;26.50;86.90
5932;DHT22;2991;49.368;8.528;2022-09-01T18:12:59;26.50;87.00
5932;DHT22;2991;49.368;8.528;2022-09-01T18:15:26;26.50;86.90
5932;DHT22;2991;49.368;8.528;2022-09-01T18:20:44;26.50;86.90
5932;DHT22;2991;49.368;8.528;2022-09-01T18:23:14;26.50;86.90
5932;DHT22;2991;49.368;8.528;2022-09-01T18:28:35;26.50;87.00
5932;DHT22;2991;49.368;8.528;2022-09-01T18:31:12;26.50;86.90
5932;DHT22;2991;49.368;8.528;2022-09-01T18:36:32;26.50;86.90
5932;DHT22;2991;49.368;8.528;2022-09-01T18:42:04;26.50;86.90
5932;DHT22;2991;49.368;8.528;2022-09-01T18:47:32;26.40;86.80
5932;DHT22;2991;49.368;8.528;2022-09-01T18:50:12;26.40;86.80
5932;DHT22;2991;49.368;8.528;2022-09-01T18:53:06;26.40;86.80
5932;DHT22;2991;49.368;8.528;2022-09-01T18:56:05;26.40;86.80
5932;DHT22;2991;49.368;8.528;2022-09-01T18:58:50;26.40;86.70
5932;DHT22;2991;49.368;8.528;2022-09-01T19:04:20;26.40;86.80
5932;DHT22;2991;49.368;8.528;2022-09-01T19:09:37;26.40;86.70
5932;DHT22;2991;49.368;8.528;2022-09-01T19:12:25;26.40;86.70
5932;DHT22;2991;49.368;8.528;2022-09-01T19:15:07;26.40;86.80
5932;DHT22;2991;49.368;8.528;2022-09-01T19:23:33;26.30;86.70
5932;DHT22;2991;49.368;8.528;2022-09-01T19:26:10;26.40;86.70
5932;DHT22;2991;49.368;8.528;2022-09-01T19:28:44;26.40;86.70
5932;DHT22;2991;49.368;8.528;2022-09-01T19:33:41;26.30;86.60
5932;DHT22;2991;49.368;8.528;2022-09-01T19:36:10;26.40;86.60
5932;DHT22;2991;49.368;8.528;2022-09-01T19:38:37;26.40;86.60